Florence, Vermont
Current Conditions -  °F | °C
As of 4:35 PM on Wednesday 26 Nov 2014 (Local Time) from KRUT Reporting Station
Overcast Overcast  
Wind Chill: 23°   Ceiling: 400
Heat Index: 30°   Visibility: 1.7mi
Dew Point: 28°   Wind: 8mph
Humidity: 93%   Direction: 340°NNW
Pressure: 30"   Gusts: NA
Location:  43.72°N, 73.06°W
Report Text: KRUT 262135Z 34007KT 300V360 1 3/4SM OVC004 M01/M02 A3000 RMK AO1
Loading
Personal Weather Stations






























Interactive Weather Map New forecast layout! Learn more

10-Day Weather Forecast

Advertisements
Track Severe Weather on mobile